Carrollwood, Florida
Current Conditions -  °F | °C
As of 1:53 PM on Thursday 27 Nov 2014 (Local Time) from KTPA Reporting Station
Clear Clear  
Wind Chill: 68°   Ceiling: Unl
Heat Index: 68°   Visibility: 10mi
Dew Point: 43°   Wind: 16mph
Humidity: 40%   Direction: 320°NW
Pressure: 30.21"   Gusts: NA
Location:  28.0718°N, 82.5592°W
Report Text: KTPA 271853Z 32014KT 10SM CLR 20/06 A3021 RMK AO2 SLP229 T02000061
Loading
Personal Weather Stations






























Interactive Weather Map New forecast layout! Learn more

10-Day Weather Forecast

Advertisements
Track Severe Weather on mobile